Bloomingrose, West Virginia
Current Conditions -  °F | °C
As of 1:54 PM on Friday 24 Oct 2014 (Local Time) from KCRW Reporting Station
Scattered Clouds Scattered Clouds  
Wind Chill: 58°   Ceiling: Unl
Heat Index: 58°   Visibility: 10mi
Dew Point: 42°   Wind: 3mph
Humidity: 56%   Direction: NA
Pressure: 30.08"   Gusts: NA
Location:  38.14°N, 81.63°W
Report Text: KCRW 241754Z VRB03KT 10SM FEW038 SCT090 SCT180 SCT300 14/06 A3008 RMK AO2 SLP186 T01440056 10150 20044 58018
Loading
Personal Weather Stations






























Interactive Weather Map
Tropical Storm Tracking
New forecast layout! Learn more

10-Day Weather Forecast

Advertisements
Track Severe Weather on mobile